sensor_id;sensor_type;location;lat;lon;timestamp;temperature;humidity
1175;DHT22;576;48.418;10.074;2023-04-25T00:01:51;23.00;58.20
1175;DHT22;576;48.418;10.074;2023-04-25T00:04:19;23.10;58.20
1175;DHT22;576;48.418;10.074;2023-04-25T00:06:48;23.10;58.20
1175;DHT22;576;48.418;10.074;2023-04-25T00:09:17;23.00;58.10
1175;DHT22;576;48.418;10.074;2023-04-25T00:11:46;23.10;58.10
1175;DHT22;576;48.418;10.074;2023-04-25T00:14:14;23.00;58.10
1175;DHT22;576;48.418;10.074;2023-04-25T00:16:43;23.00;58.10
1175;DHT22;576;48.418;10.074;2023-04-25T00:19:11;23.00;58.10
1175;DHT22;576;48.418;10.074;2023-04-25T00:21:40;23.00;58.10
1175;DHT22;576;48.418;10.074;2023-04-25T00:24:08;23.00;58.10
1175;DHT22;576;48.418;10.074;2023-04-25T00:26:36;23.10;58.10
1175;DHT22;576;48.418;10.074;2023-04-25T00:29:06;23.10;58.10
1175;DHT22;576;48.418;10.074;2023-04-25T00:31:34;23.00;58.10
1175;DHT22;576;48.418;10.074;2023-04-25T00:34:03;23.00;58.10
1175;DHT22;576;48.418;10.074;2023-04-25T00:36:31;23.00;58.10
1175;DHT22;576;48.418;10.074;2023-04-25T00:38:59;23.00;58.10
1175;DHT22;576;48.418;10.074;2023-04-25T00:41:27;23.00;58.10
1175;DHT22;576;48.418;10.074;2023-04-25T00:43:59;23.00;58.10
1175;DHT22;576;48.418;10.074;2023-04-25T00:46:31;23.00;58.20
1175;DHT22;576;48.418;10.074;2023-04-25T00:48:59;23.00;58.20
1175;DHT22;576;48.418;10.074;2023-04-25T00:51:27;23.00;58.10
1175;DHT22;576;48.418;10.074;2023-04-25T00:53:55;23.00;58.20
1175;DHT22;576;48.418;10.074;2023-04-25T00:56:24;23.00;58.20
1175;DHT22;576;48.418;10.074;2023-04-25T00:58:53;23.00;58.20
1175;DHT22;576;48.418;10.074;2023-04-25T01:01:22;22.90;58.20
1175;DHT22;576;48.418;10.074;2023-04-25T01:03:53;22.90;58.20
1175;DHT22;576;48.418;10.074;2023-04-25T01:06:22;22.90;58.20
1175;DHT22;576;48.418;10.074;2023-04-25T01:08:51;22.90;58.20
1175;DHT22;576;48.418;10.074;2023-04-25T01:11:20;22.90;58.20
1175;DHT22;576;48.418;10.074;2023-04-25T01:13:48;22.90;58.20
1175;DHT22;576;48.418;10.074;2023-04-25T01:16:17;22.90;58.20
1175;DHT22;576;48.418;10.074;2023-04-25T01:18:45;22.90;58.20
1175;DHT22;576;48.418;10.074;2023-04-25T01:21:16;22.90;58.20
1175;DHT22;576;48.418;10.074;2023-04-25T01:23:46;22.90;58.20
1175;DHT22;576;48.418;10.074;2023-04-25T01:26:15;22.90;58.20
1175;DHT22;576;48.418;10.074;2023-04-25T01:28:44;22.90;58.20
1175;DHT22;576;48.418;10.074;2023-04-25T01:31:13;22.90;58.20
1175;DHT22;576;48.418;10.074;2023-04-25T01:33:43;22.90;58.20
1175;DHT22;576;48.418;10.074;2023-04-25T01:36:12;22.90;58.10
1175;DHT22;576;48.418;10.074;2023-04-25T01:38:42;22.90;58.10
1175;DHT22;576;48.418;10.074;2023-04-25T01:41:10;22.90;58.20
1175;DHT22;576;48.418;10.074;2023-04-25T01:43:39;22.90;58.10
1175;DHT22;576;48.418;10.074;2023-04-25T01:46:07;22.80;57.80
1175;DHT22;576;48.418;10.074;2023-04-25T01:48:36;22.80;57.90
1175;DHT22;576;48.418;10.074;2023-04-25T01:51:04;22.80;57.90
1175;DHT22;576;48.418;10.074;2023-04-25T01:53:32;22.80;57.90
1175;DHT22;576;48.418;10.074;2023-04-25T01:56:05;22.80;58.00
1175;DHT22;576;48.418;10.074;2023-04-25T01:58:34;22.80;57.90
1175;DHT22;576;48.418;10.074;2023-04-25T02:01:05;22.80;58.00
1175;DHT22;576;48.418;10.074;2023-04-25T02:03:41;22.70;58.20
1175;DHT22;576;48.418;10.074;2023-04-25T02:06:18;22.70;58.20
1175;DHT22;576;48.418;10.074;2023-04-25T02:08:48;22.80;58.20
1175;DHT22;576;48.418;10.074;2023-04-25T02:11:18;22.80;58.30
1175;DHT22;576;48.418;10.074;2023-04-25T02:13:56;22.70;58.40
1175;DHT22;576;48.418;10.074;2023-04-25T02:16:41;22.80;58.30
1175;DHT22;576;48.418;10.074;2023-04-25T02:19:10;22.70;58.40
1175;DHT22;576;48.418;10.074;2023-04-25T02:21:39;22.70;58.40
1175;DHT22;576;48.418;10.074;2023-04-25T02:24:08;22.70;58.40
1175;DHT22;576;48.418;10.074;2023-04-25T02:26:37;22.70;58.40
1175;DHT22;576;48.418;10.074;2023-04-25T02:29:08;22.70;58.40
1175;DHT22;576;48.418;10.074;2023-04-25T02:31:36;22.70;58.40
1175;DHT22;576;48.418;10.074;2023-04-25T02:34:04;22.70;58.40
1175;DHT22;576;48.418;10.074;2023-04-25T02:36:35;22.70;58.40
1175;DHT22;576;48.418;10.074;2023-04-25T02:39:03;22.70;58.40
1175;DHT22;576;48.418;10.074;2023-04-25T02:41:31;22.70;58.40
1175;DHT22;576;48.418;10.074;2023-04-25T02:44:01;22.70;58.40
1175;DHT22;576;48.418;10.074;2023-04-25T02:46:29;22.70;58.40
1175;DHT22;576;48.418;10.074;2023-04-25T02:49:05;22.70;58.40
1175;DHT22;576;48.418;10.074;2023-04-25T02:51:34;22.70;58.40
1175;DHT22;576;48.418;10.074;2023-04-25T02:54:03;22.70;58.40
1175;DHT22;576;48.418;10.074;2023-04-25T02:56:37;22.70;58.40
1175;DHT22;576;48.418;10.074;2023-04-25T02:59:11;22.70;58.40
1175;DHT22;576;48.418;10.074;2023-04-25T03:01:40;22.70;58.40
1175;DHT22;576;48.418;10.074;2023-04-25T03:04:08;22.70;58.40
1175;DHT22;576;48.418;10.074;2023-04-25T03:06:36;22.70;58.40
1175;DHT22;576;48.418;10.074;2023-04-25T03:09:04;22.70;58.40
1175;DHT22;576;48.418;10.074;2023-04-25T03:11:33;22.70;58.40
1175;DHT22;576;48.418;10.074;2023-04-25T03:14:01;22.70;58.40
1175;DHT22;576;48.418;10.074;2023-04-25T03:16:31;22.70;58.40
1175;DHT22;576;48.418;10.074;2023-04-25T03:18:59;22.70;58.40
1175;DHT22;576;48.418;10.074;2023-04-25T03:21:27;22.70;58.40
1175;DHT22;576;48.418;10.074;2023-04-25T03:23:57;22.70;58.40
1175;DHT22;576;48.418;10.074;2023-04-25T03:26:26;22.70;58.40
1175;DHT22;576;48.418;10.074;2023-04-25T03:28:54;22.60;58.40
1175;DHT22;576;48.418;10.074;2023-04-25T03:31:22;22.70;58.40
1175;DHT22;576;48.418;10.074;2023-04-25T03:33:52;22.60;58.40
1175;DHT22;576;48.418;10.074;2023-04-25T03:36:22;22.60;58.40
1175;DHT22;576;48.418;10.074;2023-04-25T03:38:50;22.60;58.40
1175;DHT22;576;48.418;10.074;2023-04-25T03:41:20;22.60;58.40
1175;DHT22;576;48.418;10.074;2023-04-25T03:43:53;22.60;58.40
1175;DHT22;576;48.418;10.074;2023-04-25T03:46:21;22.60;58.40
1175;DHT22;576;48.418;10.074;2023-04-25T03:48:49;22.60;58.40
1175;DHT22;576;48.418;10.074;2023-04-25T03:51:23;22.60;58.40
1175;DHT22;576;48.418;10.074;2023-04-25T03:53:52;22.70;58.40
1175;DHT22;576;48.418;10.074;2023-04-25T03:56:40;22.70;58.40
1175;DHT22;576;48.418;10.074;2023-04-25T03:59:17;22.70;58.40
1175;DHT22;576;48.418;10.074;2023-04-25T04:01:45;22.70;58.30
1175;DHT22;576;48.418;10.074;2023-04-25T04:04:13;22.80;58.40
1175;DHT22;576;48.418;10.074;2023-04-25T04:06:44;22.80;58.10
1175;DHT22;576;48.418;10.074;2023-04-25T04:09:18;22.90;58.30
1175;DHT22;576;48.418;10.074;2023-04-25T04:11:47;22.90;58.10
1175;DHT22;576;48.418;10.074;2023-04-25T04:14:15;23.00;58.00
1175;DHT22;576;48.418;10.074;2023-04-25T04:16:46;23.00;57.90
1175;DHT22;576;48.418;10.074;2023-04-25T04:19:14;23.10;58.00
1175;DHT22;576;48.418;10.074;2023-04-25T04:21:58;23.10;57.80
1175;DHT22;576;48.418;10.074;2023-04-25T04:24:26;23.10;57.90
1175;DHT22;576;48.418;10.074;2023-04-25T04:27:00;23.10;57.70
1175;DHT22;576;48.418;10.074;2023-04-25T04:29:33;23.10;57.70
1175;DHT22;576;48.418;10.074;2023-04-25T04:32:15;23.10;57.40
1175;DHT22;576;48.418;10.074;2023-04-25T04:34:44;23.10;57.70
1175;DHT22;576;48.418;10.074;2023-04-25T04:37:16;23.10;57.80
1175;DHT22;576;48.418;10.074;2023-04-25T04:39:45;23.10;57.70
1175;DHT22;576;48.418;10.074;2023-04-25T04:42:34;23.10;57.80
1175;DHT22;576;48.418;10.074;2023-04-25T04:45:26;23.10;57.80
1175;DHT22;576;48.418;10.074;2023-04-25T04:48:09;23.00;57.80
1175;DHT22;576;48.418;10.074;2023-04-25T04:50:55;23.00;57.90
1175;DHT22;576;48.418;10.074;2023-04-25T04:53:43;23.00;57.90
1175;DHT22;576;48.418;10.074;2023-04-25T04:56:30;23.00;58.00
1175;DHT22;576;48.418;10.074;2023-04-25T04:59:33;22.90;58.00
1175;DHT22;576;48.418;10.074;2023-04-25T05:02:21;22.90;58.10
1175;DHT22;576;48.418;10.074;2023-04-25T05:05:08;22.90;58.00
1175;DHT22;576;48.418;10.074;2023-04-25T05:08:15;22.80;57.90
1175;DHT22;576;48.418;10.074;2023-04-25T05:10:54;22.80;58.10
1175;DHT22;576;48.418;10.074;2023-04-25T05:13:32;22.80;58.10
1175;DHT22;576;48.418;10.074;2023-04-25T05:16:13;22.80;57.80
1175;DHT22;576;48.418;10.074;2023-04-25T05:18:56;22.80;58.00
1175;DHT22;576;48.418;10.074;2023-04-25T05:21:35;22.70;57.80
1175;DHT22;576;48.418;10.074;2023-04-25T05:24:23;22.70;58.00
1175;DHT22;576;48.418;10.074;2023-04-25T05:27:21;22.70;58.10
1175;DHT22;576;48.418;10.074;2023-04-25T05:30:12;22.70;58.30
1175;DHT22;576;48.418;10.074;2023-04-25T05:33:12;22.70;58.30
1175;DHT22;576;48.418;10.074;2023-04-25T05:35:41;22.70;58.10
1175;DHT22;576;48.418;10.074;2023-04-25T05:38:10;22.70;58.30
1175;DHT22;576;48.418;10.074;2023-04-25T05:41:05;22.70;58.40
1175;DHT22;576;48.418;10.074;2023-04-25T05:43:48;22.70;58.40
1175;DHT22;576;48.418;10.074;2023-04-25T05:46:24;22.70;58.20
1175;DHT22;576;48.418;10.074;2023-04-25T05:49:13;22.70;58.30
1175;DHT22;576;48.418;10.074;2023-04-25T05:52:01;22.70;58.20
1175;DHT22;576;48.418;10.074;2023-04-25T05:54:48;22.70;58.40
1175;DHT22;576;48.418;10.074;2023-04-25T05:57:22;22.70;58.40
1175;DHT22;576;48.418;10.074;2023-04-25T05:59:53;22.70;58.20
1175;DHT22;576;48.418;10.074;2023-04-25T06:02:27;22.80;58.30
1175;DHT22;576;48.418;10.074;2023-04-25T06:04:55;22.80;58.20
1175;DHT22;576;48.418;10.074;2023-04-25T06:07:24;22.80;58.20
1175;DHT22;576;48.418;10.074;2023-04-25T06:09:52;22.80;58.20
1175;DHT22;576;48.418;10.074;2023-04-25T06:12:20;22.80;58.20
1175;DHT22;576;48.418;10.074;2023-04-25T06:14:49;22.80;58.10
1175;DHT22;576;48.418;10.074;2023-04-25T06:17:19;22.90;58.10
1175;DHT22;576;48.418;10.074;2023-04-25T06:19:49;22.90;58.10
1175;DHT22;576;48.418;10.074;2023-04-25T06:22:18;22.90;58.00
1175;DHT22;576;48.418;10.074;2023-04-25T06:24:46;22.90;58.00
1175;DHT22;576;48.418;10.074;2023-04-25T06:27:14;22.90;58.00
1175;DHT22;576;48.418;10.074;2023-04-25T06:29:43;22.90;58.00
1175;DHT22;576;48.418;10.074;2023-04-25T06:32:11;22.90;58.00
1175;DHT22;576;48.418;10.074;2023-04-25T06:34:41;22.90;58.00
1175;DHT22;576;48.418;10.074;2023-04-25T06:37:09;22.90;57.90
1175;DHT22;576;48.418;10.074;2023-04-25T06:39:37;22.90;57.90
1175;DHT22;576;48.418;10.074;2023-04-25T06:42:07;22.90;57.90
1175;DHT22;576;48.418;10.074;2023-04-25T06:44:49;22.90;57.70
1175;DHT22;576;48.418;10.074;2023-04-25T06:47:19;22.90;58.00
1175;DHT22;576;48.418;10.074;2023-04-25T06:49:50;22.90;57.90
1175;DHT22;576;48.418;10.074;2023-04-25T06:52:19;22.90;58.00
1175;DHT22;576;48.418;10.074;2023-04-25T06:54:48;22.90;58.00
1175;DHT22;576;48.418;10.074;2023-04-25T06:57:50;22.90;57.90
1175;DHT22;576;48.418;10.074;2023-04-25T07:00:41;22.90;58.00
1175;DHT22;576;48.418;10.074;2023-04-25T07:03:09;22.90;57.80
1175;DHT22;576;48.418;10.074;2023-04-25T07:05:39;22.90;57.80
1175;DHT22;576;48.418;10.074;2023-04-25T07:08:07;22.90;57.80
1175;DHT22;576;48.418;10.074;2023-04-25T07:10:36;22.90;57.90
1175;DHT22;576;48.418;10.074;2023-04-25T07:13:05;22.90;57.80
1175;DHT22;576;48.418;10.074;2023-04-25T07:15:33;23.00;57.70
1175;DHT22;576;48.418;10.074;2023-04-25T07:18:02;23.00;57.80
1175;DHT22;576;48.418;10.074;2023-04-25T07:20:30;23.00;57.70
1175;DHT22;576;48.418;10.074;2023-04-25T07:23:01;23.00;57.70
1175;DHT22;576;48.418;10.074;2023-04-25T07:25:29;23.00;57.60
1175;DHT22;576;48.418;10.074;2023-04-25T07:27:58;23.00;57.70
1175;DHT22;576;48.418;10.074;2023-04-25T07:30:26;23.00;57.70
1175;DHT22;576;48.418;10.074;2023-04-25T07:32:55;23.00;57.70
1175;DHT22;576;48.418;10.074;2023-04-25T07:35:23;23.00;57.70
1175;DHT22;576;48.418;10.074;2023-04-25T07:37:52;23.00;57.70
1175;DHT22;576;48.418;10.074;2023-04-25T07:40:21;23.00;57.70
1175;DHT22;576;48.418;10.074;2023-04-25T07:42:54;22.90;57.70
1175;DHT22;576;48.418;10.074;2023-04-25T07:45:30;23.00;57.70
1175;DHT22;576;48.418;10.074;2023-04-25T07:47:59;23.00;57.70
1175;DHT22;576;48.418;10.074;2023-04-25T07:50:29;23.00;57.70
1175;DHT22;576;48.418;10.074;2023-04-25T07:52:57;23.00;57.60
1175;DHT22;576;48.418;10.074;2023-04-25T07:55:33;23.00;57.70
1175;DHT22;576;48.418;10.074;2023-04-25T07:58:08;23.00;57.70
1175;DHT22;576;48.418;10.074;2023-04-25T08:00:39;23.00;57.80
1175;DHT22;576;48.418;10.074;2023-04-25T08:03:40;23.00;57.80
1175;DHT22;576;48.418;10.074;2023-04-25T08:06:16;23.00;57.80
1175;DHT22;576;48.418;10.074;2023-04-25T08:08:56;23.00;57.80
1175;DHT22;576;48.418;10.074;2023-04-25T08:11:33;23.00;57.80
1175;DHT22;576;48.418;10.074;2023-04-25T08:14:02;23.10;57.80
1175;DHT22;576;48.418;10.074;2023-04-25T08:16:30;23.10;57.80
1175;DHT22;576;48.418;10.074;2023-04-25T08:18:59;23.10;57.80
1175;DHT22;576;48.418;10.074;2023-04-25T08:21:27;23.10;57.80
1175;DHT22;576;48.418;10.074;2023-04-25T08:23:58;23.10;57.80
1175;DHT22;576;48.418;10.074;2023-04-25T08:26:29;23.10;57.80
1175;DHT22;576;48.418;10.074;2023-04-25T08:29:00;23.10;57.80
1175;DHT22;576;48.418;10.074;2023-04-25T08:31:28;23.20;57.70
1175;DHT22;576;48.418;10.074;2023-04-25T08:33:59;23.20;57.70
1175;DHT22;576;48.418;10.074;2023-04-25T08:36:38;23.20;57.70
1175;DHT22;576;48.418;10.074;2023-04-25T08:39:29;23.20;57.60
1175;DHT22;576;48.418;10.074;2023-04-25T08:42:18;23.20;57.60
1175;DHT22;576;48.418;10.074;2023-04-25T08:44:48;23.30;57.60
1175;DHT22;576;48.418;10.074;2023-04-25T08:47:18;23.30;57.60
1175;DHT22;576;48.418;10.074;2023-04-25T08:49:55;23.30;57.60
1175;DHT22;576;48.418;10.074;2023-04-25T08:52:24;23.30;57.50
1175;DHT22;576;48.418;10.074;2023-04-25T08:54:55;23.30;57.50
1175;DHT22;576;48.418;10.074;2023-04-25T08:57:27;23.30;57.40
1175;DHT22;576;48.418;10.074;2023-04-25T08:59:59;23.30;57.50
1175;DHT22;576;48.418;10.074;2023-04-25T09:02:32;23.30;57.50
1175;DHT22;576;48.418;10.074;2023-04-25T09:05:02;23.30;57.40
1175;DHT22;576;48.418;10.074;2023-04-25T09:07:31;23.30;57.40
1175;DHT22;576;48.418;10.074;2023-04-25T09:10:00;23.30;57.40
1175;DHT22;576;48.418;10.074;2023-04-25T09:12:35;23.30;57.40
1175;DHT22;576;48.418;10.074;2023-04-25T09:15:08;23.40;57.40
1175;DHT22;576;48.418;10.074;2023-04-25T09:18:05;23.30;57.30
1175;DHT22;576;48.418;10.074;2023-04-25T09:20:42;23.40;57.30
1175;DHT22;576;48.418;10.074;2023-04-25T09:23:28;23.40;57.20
1175;DHT22;576;48.418;10.074;2023-04-25T09:25:57;23.30;57.20
1175;DHT22;576;48.418;10.074;2023-04-25T09:28:26;23.30;57.30
1175;DHT22;576;48.418;10.074;2023-04-25T09:30:59;23.30;57.30
1175;DHT22;576;48.418;10.074;2023-04-25T09:33:35;23.30;57.40
1175;DHT22;576;48.418;10.074;2023-04-25T09:36:07;23.30;57.40
1175;DHT22;576;48.418;10.074;2023-04-25T09:39:12;23.40;57.40
1175;DHT22;576;48.418;10.074;2023-04-25T09:41:53;23.40;57.40
1175;DHT22;576;48.418;10.074;2023-04-25T09:44:23;23.30;57.30
1175;DHT22;576;48.418;10.074;2023-04-25T09:46:54;23.30;57.30
1175;DHT22;576;48.418;10.074;2023-04-25T09:49:26;23.30;57.30
1175;DHT22;576;48.418;10.074;2023-04-25T09:52:04;23.30;57.40
1175;DHT22;576;48.418;10.074;2023-04-25T09:54:41;23.30;57.40
1175;DHT22;576;48.418;10.074;2023-04-25T09:57:15;23.30;57.40
1175;DHT22;576;48.418;10.074;2023-04-25T09:59:45;23.30;57.40
1175;DHT22;576;48.418;10.074;2023-04-25T10:02:17;23.30;57.40
1175;DHT22;576;48.418;10.074;2023-04-25T10:04:50;23.30;57.30
1175;DHT22;576;48.418;10.074;2023-04-25T10:07:34;23.30;57.40
1175;DHT22;576;48.418;10.074;2023-04-25T10:10:09;23.30;57.50
1175;DHT22;576;48.418;10.074;2023-04-25T10:12:40;23.30;57.60
1175;DHT22;576;48.418;10.074;2023-04-25T10:15:11;23.30;57.60
1175;DHT22;576;48.418;10.074;2023-04-25T10:17:41;23.30;57.60
1175;DHT22;576;48.418;10.074;2023-04-25T10:20:11;23.30;57.60
1175;DHT22;576;48.418;10.074;2023-04-25T10:22:41;23.30;57.60
1175;DHT22;576;48.418;10.074;2023-04-25T10:25:10;23.30;57.70
1175;DHT22;576;48.418;10.074;2023-04-25T10:27:39;23.20;57.70
1175;DHT22;576;48.418;10.074;2023-04-25T10:30:08;23.20;57.60
1175;DHT22;576;48.418;10.074;2023-04-25T10:32:40;23.20;57.60
1175;DHT22;576;48.418;10.074;2023-04-25T10:35:14;23.20;57.60
1175;DHT22;576;48.418;10.074;2023-04-25T10:38:00;23.20;57.60
1175;DHT22;576;48.418;10.074;2023-04-25T10:40:29;23.20;57.60
1175;DHT22;576;48.418;10.074;2023-04-25T10:46:00;23.20;57.50
1175;DHT22;576;48.418;10.074;2023-04-25T10:48:30;23.20;57.40
1175;DHT22;576;48.418;10.074;2023-04-25T10:51:07;23.20;57.30
1175;DHT22;576;48.418;10.074;2023-04-25T10:53:36;23.20;57.30
1175;DHT22;576;48.418;10.074;2023-04-25T10:56:10;23.20;57.40
1175;DHT22;576;48.418;10.074;2023-04-25T10:58:44;23.20;57.40
1175;DHT22;576;48.418;10.074;2023-04-25T11:01:12;23.20;57.40
1175;DHT22;576;48.418;10.074;2023-04-25T11:03:43;23.10;57.40
1175;DHT22;576;48.418;10.074;2023-04-25T11:06:22;23.10;57.50
1175;DHT22;576;48.418;10.074;2023-04-25T11:08:51;23.10;57.60
1175;DHT22;576;48.418;10.074;2023-04-25T11:11:19;23.10;57.70
1175;DHT22;576;48.418;10.074;2023-04-25T11:13:48;23.10;57.70
1175;DHT22;576;48.418;10.074;2023-04-25T11:16:17;23.10;57.70
1175;DHT22;576;48.418;10.074;2023-04-25T11:18:57;23.10;57.70
1175;DHT22;576;48.418;10.074;2023-04-25T11:21:26;23.10;57.70
1175;DHT22;576;48.418;10.074;2023-04-25T11:23:55;23.10;57.70
1175;DHT22;576;48.418;10.074;2023-04-25T11:26:24;23.10;57.80
1175;DHT22;576;48.418;10.074;2023-04-25T11:28:57;23.10;57.70
1175;DHT22;576;48.418;10.074;2023-04-25T11:31:26;23.10;57.80
1175;DHT22;576;48.418;10.074;2023-04-25T11:33:56;23.10;57.80
1175;DHT22;576;48.418;10.074;2023-04-25T11:36:25;23.00;57.70
1175;DHT22;576;48.418;10.074;2023-04-25T11:38:54;23.00;57.80
1175;DHT22;576;48.418;10.074;2023-04-25T11:41:22;23.00;57.90
1175;DHT22;576;48.418;10.074;2023-04-25T11:43:51;23.00;58.00
1175;DHT22;576;48.418;10.074;2023-04-25T11:46:22;23.00;58.10
1175;DHT22;576;48.418;10.074;2023-04-25T11:48:51;23.00;58.20
1175;DHT22;576;48.418;10.074;2023-04-25T11:51:21;23.00;58.20
1175;DHT22;576;48.418;10.074;2023-04-25T11:53:49;23.00;58.30
1175;DHT22;576;48.418;10.074;2023-04-25T11:56:17;23.00;58.30
1175;DHT22;576;48.418;10.074;2023-04-25T11:58:56;23.00;58.40
1175;DHT22;576;48.418;10.074;2023-04-25T12:01:28;23.00;58.30
1175;DHT22;576;48.418;10.074;2023-04-25T12:04:11;23.10;58.30
1175;DHT22;576;48.418;10.074;2023-04-25T12:06:43;23.10;58.30
1175;DHT22;576;48.418;10.074;2023-04-25T12:09:14;23.10;58.20
1175;DHT22;576;48.418;10.074;2023-04-25T12:11:45;23.10;58.20
1175;DHT22;576;48.418;10.074;2023-04-25T12:14:21;23.10;58.10
1175;DHT22;576;48.418;10.074;2023-04-25T12:16:51;23.20;58.10
1175;DHT22;576;48.418;10.074;2023-04-25T12:19:20;23.20;58.10
1175;DHT22;576;48.418;10.074;2023-04-25T12:21:51;23.20;58.00
1175;DHT22;576;48.418;10.074;2023-04-25T12:24:26;23.20;58.00
1175;DHT22;576;48.418;10.074;2023-04-25T12:27:00;23.20;58.10
1175;DHT22;576;48.418;10.074;2023-04-25T12:29:30;23.20;58.40
1175;DHT22;576;48.418;10.074;2023-04-25T12:32:14;23.20;58.50
1175;DHT22;576;48.418;10.074;2023-04-25T12:34:43;23.30;58.50
1175;DHT22;576;48.418;10.074;2023-04-25T12:37:13;23.30;58.40
1175;DHT22;576;48.418;10.074;2023-04-25T12:39:41;23.30;58.50
1175;DHT22;576;48.418;10.074;2023-04-25T12:42:10;23.30;58.50
1175;DHT22;576;48.418;10.074;2023-04-25T12:44:39;23.40;58.50
1175;DHT22;576;48.418;10.074;2023-04-25T12:47:08;23.40;58.60
1175;DHT22;576;48.418;10.074;2023-04-25T12:49:36;23.40;58.70
1175;DHT22;576;48.418;10.074;2023-04-25T12:52:05;23.40;58.70
1175;DHT22;576;48.418;10.074;2023-04-25T12:54:35;23.50;58.70
1175;DHT22;576;48.418;10.074;2023-04-25T12:57:04;23.50;58.70
1175;DHT22;576;48.418;10.074;2023-04-25T12:59:33;23.50;58.70
1175;DHT22;576;48.418;10.074;2023-04-25T13:02:02;23.50;58.70
1175;DHT22;576;48.418;10.074;2023-04-25T13:04:30;23.60;58.80
1175;DHT22;576;48.418;10.074;2023-04-25T13:06:58;23.60;58.80
1175;DHT22;576;48.418;10.074;2023-04-25T13:09:27;23.70;58.80
1175;DHT22;576;48.418;10.074;2023-04-25T13:11:57;23.70;58.70
1175;DHT22;576;48.418;10.074;2023-04-25T13:14:26;23.80;58.60
1175;DHT22;576;48.418;10.074;2023-04-25T13:16:55;23.80;58.60
1175;DHT22;576;48.418;10.074;2023-04-25T13:19:23;23.80;58.60
1175;DHT22;576;48.418;10.074;2023-04-25T13:21:53;23.90;58.50
1175;DHT22;576;48.418;10.074;2023-04-25T13:24:22;23.90;58.40
1175;DHT22;576;48.418;10.074;2023-04-25T13:26:50;23.90;58.40
1175;DHT22;576;48.418;10.074;2023-04-25T13:29:20;23.90;58.40
1175;DHT22;576;48.418;10.074;2023-04-25T13:31:48;23.90;58.50
1175;DHT22;576;48.418;10.074;2023-04-25T13:34:17;24.00;58.50
1175;DHT22;576;48.418;10.074;2023-04-25T13:36:46;24.00;58.40
1175;DHT22;576;48.418;10.074;2023-04-25T13:39:15;24.00;58.40
1175;DHT22;576;48.418;10.074;2023-04-25T13:41:44;24.00;58.40
1175;DHT22;576;48.418;10.074;2023-04-25T13:44:12;24.00;58.40
1175;DHT22;576;48.418;10.074;2023-04-25T13:46:42;24.00;58.40
1175;DHT22;576;48.418;10.074;2023-04-25T13:49:13;24.10;58.40
1175;DHT22;576;48.418;10.074;2023-04-25T13:51:42;24.10;58.40
1175;DHT22;576;48.418;10.074;2023-04-25T13:54:11;24.20;58.30
1175;DHT22;576;48.418;10.074;2023-04-25T13:56:40;24.20;58.30
1175;DHT22;576;48.418;10.074;2023-04-25T13:59:09;24.30;58.20
1175;DHT22;576;48.418;10.074;2023-04-25T14:01:38;24.40;58.10
1175;DHT22;576;48.418;10.074;2023-04-25T14:04:09;24.40;58.10
1175;DHT22;576;48.418;10.074;2023-04-25T14:06:38;24.40;58.10
1175;DHT22;576;48.418;10.074;2023-04-25T14:09:07;24.50;57.90
1175;DHT22;576;48.418;10.074;2023-04-25T14:11:37;24.60;57.90
1175;DHT22;576;48.418;10.074;2023-04-25T14:14:05;24.70;57.80
1175;DHT22;576;48.418;10.074;2023-04-25T14:16:35;24.70;57.50
1175;DHT22;576;48.418;10.074;2023-04-25T14:19:03;24.60;56.80
1175;DHT22;576;48.418;10.074;2023-04-25T14:21:34;24.60;56.50
1175;DHT22;576;48.418;10.074;2023-04-25T14:24:03;24.60;56.40
1175;DHT22;576;48.418;10.074;2023-04-25T14:26:33;24.50;56.30
1175;DHT22;576;48.418;10.074;2023-04-25T14:29:03;24.50;56.30
1175;DHT22;576;48.418;10.074;2023-04-25T14:31:32;24.40;56.70
1175;DHT22;576;48.418;10.074;2023-04-25T14:34:01;24.40;56.90
1175;DHT22;576;48.418;10.074;2023-04-25T14:36:30;24.40;56.90
1175;DHT22;576;48.418;10.074;2023-04-25T14:39:00;24.30;56.90
1175;DHT22;576;48.418;10.074;2023-04-25T14:41:29;24.40;57.00
1175;DHT22;576;48.418;10.074;2023-04-25T14:43:58;24.40;57.20
1175;DHT22;576;48.418;10.074;2023-04-25T14:46:27;24.40;57.10
1175;DHT22;576;48.418;10.074;2023-04-25T14:48:55;24.40;57.20
1175;DHT22;576;48.418;10.074;2023-04-25T14:51:24;24.40;57.20
1175;DHT22;576;48.418;10.074;2023-04-25T14:53:53;24.40;57.30
1175;DHT22;576;48.418;10.074;2023-04-25T14:56:23;24.40;57.40
1175;DHT22;576;48.418;10.074;2023-04-25T14:58:51;24.30;57.50
1175;DHT22;576;48.418;10.074;2023-04-25T15:01:21;24.30;57.60
1175;DHT22;576;48.418;10.074;2023-04-25T15:03:50;24.30;57.60
1175;DHT22;576;48.418;10.074;2023-04-25T15:06:20;24.30;57.60
1175;DHT22;576;48.418;10.074;2023-04-25T15:08:49;24.30;57.60
1175;DHT22;576;48.418;10.074;2023-04-25T15:11:18;24.30;57.60
1175;DHT22;576;48.418;10.074;2023-04-25T15:13:49;24.30;57.60
1175;DHT22;576;48.418;10.074;2023-04-25T15:16:18;24.30;57.60
1175;DHT22;576;48.418;10.074;2023-04-25T15:18:47;24.30;57.50
1175;DHT22;576;48.418;10.074;2023-04-25T15:21:15;24.30;57.60
1175;DHT22;576;48.418;10.074;2023-04-25T15:23:43;24.30;57.50
1175;DHT22;576;48.418;10.074;2023-04-25T15:26:11;24.30;57.30
1175;DHT22;576;48.418;10.074;2023-04-25T15:28:39;24.30;57.10
1175;DHT22;576;48.418;10.074;2023-04-25T15:31:09;24.40;57.20
1175;DHT22;576;48.418;10.074;2023-04-25T15:33:37;24.40;57.50
1175;DHT22;576;48.418;10.074;2023-04-25T15:36:06;24.40;57.50
1175;DHT22;576;48.418;10.074;2023-04-25T15:38:34;24.40;57.60
1175;DHT22;576;48.418;10.074;2023-04-25T15:41:03;24.40;57.70
1175;DHT22;576;48.418;10.074;2023-04-25T15:43:32;24.40;57.50
1175;DHT22;576;48.418;10.074;2023-04-25T15:46:04;24.40;57.20
1175;DHT22;576;48.418;10.074;2023-04-25T15:48:34;24.40;57.00
1175;DHT22;576;48.418;10.074;2023-04-25T15:51:03;24.30;56.90
1175;DHT22;576;48.418;10.074;2023-04-25T15:53:31;24.30;56.90
1175;DHT22;576;48.418;10.074;2023-04-25T15:56:00;24.20;57.00
1175;DHT22;576;48.418;10.074;2023-04-25T15:58:28;24.20;57.00
1175;DHT22;576;48.418;10.074;2023-04-25T16:00:56;24.20;57.00
1175;DHT22;576;48.418;10.074;2023-04-25T16:03:24;24.10;57.00
1175;DHT22;576;48.418;10.074;2023-04-25T16:05:54;24.10;57.00
1175;DHT22;576;48.418;10.074;2023-04-25T16:08:22;24.10;57.00
1175;DHT22;576;48.418;10.074;2023-04-25T16:10:51;24.10;57.00
1175;DHT22;576;48.418;10.074;2023-04-25T16:13:19;24.10;57.10
1175;DHT22;576;48.418;10.074;2023-04-25T16:15:48;24.10;57.10
1175;DHT22;576;48.418;10.074;2023-04-25T16:18:16;24.10;57.10
1175;DHT22;576;48.418;10.074;2023-04-25T16:20:45;24.10;57.00
1175;DHT22;576;48.418;10.074;2023-04-25T16:23:14;24.10;57.00
1175;DHT22;576;48.418;10.074;2023-04-25T16:25:42;24.10;57.00
1175;DHT22;576;48.418;10.074;2023-04-25T16:28:10;24.10;56.90
1175;DHT22;576;48.418;10.074;2023-04-25T16:30:39;24.10;56.90
1175;DHT22;576;48.418;10.074;2023-04-25T16:33:07;24.10;56.90
1175;DHT22;576;48.418;10.074;2023-04-25T16:35:35;24.10;56.90